Погода Бейсутерна неделю

Западная Австралия, Австралия

08 - 14 февраля
  • 08февраля
    Сегодня
    +19°
    +29°
    Ясно и безоблачно
    ВремяПогодаТемператураВлажностьДавлениеВетер, м/сВероятность осадков
    02:00Ясно и безоблачно+21°C62 %755 мм1.8 м/с5 %
    05:00Ясно и безоблачно+19°C71 %755 мм1.8 м/с5 %
    08:00Ясно и безоблачно+22°C57 %757 мм2.4 м/с5 %
    11:00Ясно и безоблачно+28°C37 %756 мм2.2 м/с5 %
    14:00Ясно и безоблачно+29°C44 %755 мм4.0 м/с5 %
    17:00Ясно и безоблачно+26°C53 %755 мм4.1 м/с5 %
    20:00Ясно и безоблачно+23°C73 %756 мм2.8 м/с5 %
    23:00Ясно и безоблачно+21°C83 %756 мм1.5 м/с5 %
  • 09февраля
    Четверг
    +18°
    +32°
    Ясно и безоблачно
    ВремяПогодаТемператураВлажностьДавлениеВетер, м/сВероятность осадков
    02:00Ясно и безоблачно+19°C81 %755 мм1.4 м/с5 %
    05:00Ясно и безоблачно+19°C69 %755 мм1.9 м/с5 %
    08:00Ясно и безоблачно+22°C57 %756 мм2.6 м/с5 %
    11:00Ясно и безоблачно+29°C34 %755 мм2.0 м/с5 %
    14:00Ясно и безоблачно+30°C42 %754 мм3.9 м/с5 %
    17:00Ясно и безоблачно+28°C45 %753 мм4.5 м/с5 %
    20:00Ясно и безоблачно+24°C66 %754 мм2.8 м/с5 %
    23:00Ясно и безоблачно+23°C75 %753 мм1.7 м/с5 %
  • 10февраля
    Пятница
    +16°
    +27°
    Ясно и безоблачно
    ВремяПогодаТемператураВлажностьДавлениеВетер, м/сВероятность осадков
    02:00Ясно и безоблачно+20°C89 %752 мм0.9 м/с5 %
    05:00Ясно и безоблачно+20°C81 %753 мм1.0 м/с5 %
    08:00Ясно и безоблачно+23°C51 %754 мм1.8 м/с5 %
    11:00Ясно и безоблачно+27°C48 %753 мм3.1 м/с5 %
    14:00Ясно и безоблачно+26°C49 %753 мм4.8 м/с5 %
    17:00Ясно и безоблачно+25°C57 %753 мм5.2 м/с5 %
    20:00Ясно и безоблачно+21°C75 %755 мм3.9 м/с5 %
    23:00Ясно и безоблачно+20°C74 %755 мм3.0 м/с5 %
  • 11февраля
    Суббота
    +17°
    +28°
    Ясно и безоблачно
    ВремяПогодаТемператураВлажностьДавлениеВетер, м/сВероятность осадков
    02:00Ясно и безоблачно+19°C78 %755 мм2.3 м/с5 %
    05:00Ясно и безоблачно+17°C86 %756 мм2.2 м/с5 %
    08:00Ясно и безоблачно+20°C68 %757 мм3.1 м/с5 %
    11:00Ясно и безоблачно+25°C41 %757 мм2.5 м/с5 %
    14:00Ясно и безоблачно+27°C43 %755 мм4.6 м/с5 %
    17:00Ясно и безоблачно+25°C51 %755 мм4.8 м/с5 %
    20:00Ясно и безоблачно+22°C65 %756 мм2.9 м/с5 %
    23:00Ясно и безоблачно+20°C73 %755 мм1.8 м/с5 %
  • 12февраля
    Воскресенье
    +19°
    +32°
    Ясно и безоблачно
    ВремяПогодаТемператураВлажностьДавлениеВетер, м/сВероятность осадков
    02:00Ясно и безоблачно+20°C61 %755 мм2.6 м/с5 %
    05:00Ясно и безоблачно+18°C68 %755 мм2.6 м/с5 %
    08:00Ясно и безоблачно+21°C57 %757 мм2.9 м/с5 %
    11:00Ясно и безоблачно+29°C36 %756 мм2.1 м/с5 %
    14:00Ясно и безоблачно+31°C38 %754 мм4.4 м/с5 %
    17:00Ясно и безоблачно+28°C43 %754 мм4.7 м/с5 %
    20:00Ясно и безоблачно+24°C55 %755 мм2.9 м/с5 %
    23:00Ясно и безоблачно+23°C61 %755 мм2.0 м/с5 %
Мы используем cookies
Соглашаюсь